Time;durP1;ratioP1;P1;durP2;ratioP2;P2;SDS_P1;SDS_P2;PMS_P1;PMS_P2;Temp;Humidity;BMP_temperature;BMP_pressure;BME280_temperature;BME280_humidity;BME280_pressure;Samples;Min_cycle;Max_cycle;Signal;HPM_P1;HPM_P2
2023/02/15 00:01:40;;;;;;;10.70;3.50;;;9.90;99.90;;;10.45;52.11;102536.31;6144437;22;97185;-59
2023/02/15 00:04:08;;;;;;;11.50;5.23;;;9.80;99.90;;;10.47;52.14;102523.09;6140211;22;97234;-59
2023/02/15 00:06:34;;;;;;;11.33;4.90;;;9.80;99.90;;;10.49;54.05;102524.84;6144112;22;98006;-59
2023/02/15 00:08:59;;;;;;;6.43;4.00;;;9.80;99.90;;;10.50;54.73;102521.31;6138966;22;97509;-58
2023/02/15 00:11:43;;;;;;;10.63;5.03;;;9.70;99.90;;;10.50;53.44;102517.78;6145599;22;97134;-58
2023/02/15 00:14:23;;;;;;;14.17;6.20;;;9.70;99.90;;;10.28;51.36;102523.19;6139573;22;97159;-59
2023/02/15 00:16:51;;;;;;;11.23;5.37;;;9.60;99.90;;;10.14;52.81;102519.72;6141133;22;98173;-56
2023/02/15 00:19:19;;;;;;;11.27;5.73;;;9.40;99.90;;;10.16;54.85;102522.34;6135920;22;103129;-58
2023/02/15 00:21:46;;;;;;;10.10;5.60;;;9.40;99.90;;;10.15;53.04;102516.19;6144111;22;97067;-57
2023/02/15 00:24:16;;;;;;;12.17;5.37;;;9.40;99.90;;;10.08;53.58;102519.72;6137555;22;96554;-59
2023/02/15 00:26:43;;;;;;;10.87;5.33;;;9.40;99.90;;;10.09;53.67;102513.56;6143686;22;97306;-59
2023/02/15 00:29:10;;;;;;;12.40;6.00;;;9.40;99.90;;;10.19;53.01;102510.00;6139389;22;97515;-59
2023/02/15 00:31:37;;;;;;;14.57;5.37;;;9.50;99.90;;;10.08;53.19;102514.44;6142225;22;96829;-58
2023/02/15 00:34:24;;;;;;;9.30;5.27;;;9.40;99.90;;;9.99;54.76;102510.09;6139051;22;97118;-57
2023/02/15 00:36:50;;;;;;;11.33;5.40;;;9.20;99.90;;;9.82;50.37;102510.13;6141642;22;98037;-59
2023/02/15 00:39:18;;;;;;;12.93;5.20;;;9.20;99.90;;;9.81;53.36;102512.78;6136994;22;101816;-59
2023/02/15 00:41:45;;;;;;;15.77;6.77;;;9.10;99.90;;;9.72;53.51;102515.47;6140700;22;97395;-59
2023/02/15 00:44:12;;;;;;;10.63;6.67;;;9.10;99.90;;;9.58;53.50;102518.13;6137930;22;98303;-58
2023/02/15 00:46:38;;;;;;;12.90;6.80;;;9.00;99.90;;;9.66;54.71;102520.72;6142131;22;97226;-58
2023/02/15 00:49:04;;;;;;;8.37;4.83;;;9.00;99.90;;;9.59;54.97;102517.25;6111265;22;97414;-58
2023/02/15 00:51:31;;;;;;;12.70;6.07;;;9.00;99.90;;;9.59;54.15;102517.25;6143664;22;97328;-56
2023/02/15 00:53:57;;;;;;;11.13;4.73;;;9.00;99.90;;;9.74;54.48;102504.03;6138460;22;96863;-57
2023/02/15 00:56:23;;;;;;;10.90;5.23;;;9.10;99.90;;;9.71;53.85;102511.94;6142275;22;98659;-58
2023/02/15 00:58:49;;;;;;;9.13;4.83;;;9.10;99.90;;;9.73;56.50;102504.91;6142467;22;97157;-58
2023/02/15 01:01:20;;;;;;;11.27;5.60;;;9.00;99.90;;;9.90;55.90;102499.59;6137527;22;97124;-58
2023/02/15 01:03:46;;;;;;;10.10;5.27;;;9.10;99.90;;;9.99;54.51;102502.19;6143380;22;97487;-58
2023/02/15 01:06:14;;;;;;;12.17;5.00;;;9.20;99.90;;;10.06;54.40;102496.00;6136836;22;102502;-59
2023/02/15 01:08:40;;;;;;;9.30;3.93;;;9.30;99.90;;;9.99;55.01;102504.84;6143161;22;98702;-58
2023/02/15 01:11:12;;;;;;;14.73;5.77;;;9.20;99.90;;;9.84;52.90;102503.13;6138421;22;97553;-58
2023/02/15 01:13:39;;;;;;;11.13;5.73;;;9.10;99.90;;;9.97;54.23;102495.16;6117892;22;97642;-58
2023/02/15 01:16:05;;;;;;;12.03;4.93;;;9.20;99.90;;;10.07;54.84;102497.75;6138515;22;97820;-59
2023/02/15 01:18:32;;;;;;;12.00;5.30;;;9.20;99.90;;;9.94;51.15;102500.44;6113634;22;99377;-58
2023/02/15 01:20:57;;;;;;;12.03;6.40;;;9.20;99.90;;;9.81;53.25;102495.22;6138635;22;96930;-58
2023/02/15 01:23:23;;;;;;;11.57;5.13;;;9.10;99.90;;;9.78;52.35;102511.03;6114895;22;97256;-58
2023/02/15 01:25:49;;;;;;;11.90;5.07;;;9.10;99.90;;;9.74;55.66;102501.41;6140323;22;110569;-58
2023/02/15 01:28:15;;;;;;;14.23;6.53;;;9.00;99.90;;;9.62;51.18;102496.16;6109869;22;97518;-58
2023/02/15 01:30:41;;;;;;;13.00;6.30;;;8.90;99.90;;;9.59;53.30;102496.16;6143268;22;97210;-59
2023/02/15 01:33:07;;;;;;;12.80;6.23;;;8.90;99.90;;;9.59;52.38;102488.25;6137370;22;97183;-59
2023/02/15 01:35:36;;;;;;;9.93;4.73;;;8.90;99.90;;;9.67;55.82;102486.47;6142100;22;97713;-59
2023/02/15 01:38:03;;;;;;;14.87;7.27;;;8.90;99.90;;;9.52;52.89;102491.78;6112188;22;97108;-57
2023/02/15 01:40:29;;;;;;;15.10;7.10;;;8.80;99.90;;;9.34;50.60;102486.56;6142128;22;97321;-56
2023/02/15 01:42:55;;;;;;;13.10;5.73;;;8.70;99.90;;;9.12;53.22;102489.22;6137756;22;104019;-57
2023/02/15 01:45:31;;;;;;;11.67;5.87;;;8.50;99.90;;;8.94;51.35;102481.31;6141009;22;97909;-58
2023/02/15 01:48:21;;;;;;;11.37;6.20;;;8.40;99.90;;;8.86;52.38;102472.56;6136762;22;101632;-58
2023/02/15 01:50:58;;;;;;;13.20;6.17;;;8.40;99.90;;;8.78;53.31;102469.03;6115253;22;98171;-56
2023/02/15 01:53:59;;;;;;;13.07;5.40;;;8.30;99.90;;;8.87;55.70;102474.31;6110126;22;97586;-59
2023/02/15 01:56:30;;;;;;;11.90;5.77;;;8.30;99.90;;;8.91;55.10;102476.06;6132293;22;101995;-59
2023/02/15 01:59:00;;;;;;;10.17;5.00;;;8.30;99.90;;;8.79;55.11;102471.66;6110563;22;97584;-58
2023/02/15 02:01:27;;;;;;;10.63;5.40;;;8.20;99.90;;;8.67;52.85;102465.50;6123038;22;97151;-59
2023/02/15 02:04:13;;;;;;;12.90;6.17;;;8.20;99.90;;;8.72;53.78;102455.88;6151324;22;97435;-56
2023/02/15 02:06:39;;;;;;;10.67;5.83;;;8.10;99.90;;;8.67;53.35;102460.25;6129589;22;98050;-58
2023/02/15 02:09:05;;;;;;;12.07;5.63;;;8.10;99.90;;;8.60;53.57;102465.50;6125221;22;96843;-56
2023/02/15 02:11:33;;;;;;;12.07;5.60;;;8.10;99.90;;;8.51;53.71;102465.47;6127876;22;97194;-58
2023/02/15 02:13:59;;;;;;;15.77;6.33;;;8.10;99.90;;;8.49;54.61;102461.09;6125413;22;97350;-58
2023/02/15 02:16:40;;;;;;;12.70;5.47;;;8.00;99.90;;;8.40;53.18;102467.25;6153686;22;97307;-57
2023/02/15 02:19:36;;;;;;;13.10;5.53;;;8.00;99.90;;;8.46;54.08;102456.72;6098708;22;98628;-58
2023/02/15 02:22:31;;;;;;;14.83;5.80;;;8.00;99.90;;;8.38;53.75;102458.44;6151782;22;96975;-55
2023/02/15 02:25:28;;;;;;;16.83;6.33;;;7.90;99.90;;;8.35;54.40;102455.81;6150611;22;97179;-58
2023/02/15 02:28:20;;;;;;;13.30;6.43;;;7.90;99.90;;;8.41;54.77;102447.97;6151188;22;97141;-57
2023/02/15 02:31:33;;;;;;;10.70;5.47;;;7.90;99.90;;;8.57;53.81;102433.94;6128158;22;97184;-58
2023/02/15 02:34:27;;;;;;;12.00;5.43;;;8.10;99.90;;;8.73;58.30;102436.59;6149119;22;97675;-58
2023/02/15 02:37:27;;;;;;;12.37;5.03;;;8.10;99.90;;;8.71;53.96;102426.06;6153205;22;97027;-61
2023/02/15 02:40:12;;;;;;;11.17;4.97;;;8.10;99.90;;;8.56;55.65;102426.94;6128203;22;97246;-60
2023/02/15 02:42:49;;;;;;;14.90;6.90;;;8.00;99.90;;;8.54;53.78;102428.69;6156355;22;97162;-59
2023/02/15 02:46:02;;;;;;;16.30;6.87;;;8.00;99.90;;;8.53;54.99;102429.53;6124888;22;97665;-59
2023/02/15 02:48:33;;;;;;;15.57;6.27;;;8.00;99.90;;;8.52;52.85;102424.28;6115329;22;96970;-59
2023/02/15 02:50:59;;;;;;;12.80;4.90;;;8.00;99.90;;;8.60;56.39;102422.53;6125038;22;97869;-59
2023/02/15 02:53:28;;;;;;;11.23;6.27;;;8.00;99.90;;;8.51;54.40;102412.88;6155593;22;98483;-59
2023/02/15 02:56:00;;;;;;;13.77;5.97;;;8.00;99.90;;;8.39;52.75;102418.16;6126823;22;96987;-59
2023/02/15 02:58:35;;;;;;;13.53;6.00;;;7.90;99.90;;;8.39;55.64;102412.91;6156488;22;97115;-58
2023/02/15 03:01:30;;;;;;;13.00;5.93;;;7.80;99.90;;;8.42;56.90;102407.63;6153201;22;97514;-58
2023/02/15 03:04:23;;;;;;;12.07;5.23;;;7.80;99.90;;;8.32;53.87;102403.19;6153826;22;97176;-58
2023/02/15 03:07:03;;;;;;;9.77;5.20;;;7.80;99.90;;;8.33;54.79;102397.94;6120659;22;96724;-59
2023/02/15 03:09:43;;;;;;;11.90;5.90;;;7.80;99.90;;;8.25;53.63;102398.81;6153637;22;96873;-59
2023/02/15 03:12:32;;;;;;;10.27;4.57;;;7.80;99.90;;;8.26;54.61;102405.81;6127443;22;97969;-59
2023/02/15 03:15:05;;;;;;;11.07;6.20;;;7.70;99.90;;;8.17;56.03;102400.53;6125803;22;97117;-57
2023/02/15 03:17:36;;;;;;;11.20;5.63;;;7.70;99.90;;;8.25;55.99;102393.56;6128801;22;97031;-57
2023/02/15 03:20:20;;;;;;;11.73;6.10;;;7.70;99.90;;;8.18;54.20;102391.78;6123766;22;96935;-58
2023/02/15 03:22:56;;;;;;;12.67;6.30;;;7.70;99.90;;;8.17;55.13;102390.03;6106509;22;97661;-57
2023/02/15 03:25:39;;;;;;;12.03;5.77;;;7.60;99.90;;;8.18;56.52;102397.03;6124901;22;102259;-58
2023/02/15 03:28:12;;;;;;;10.23;5.87;;;7.60;99.90;;;7.98;53.68;102395.25;6125697;22;96905;-57
2023/02/15 03:30:42;;;;;;;12.90;6.37;;;7.50;99.90;;;8.07;55.06;102390.00;6158075;22;97203;-58
2023/02/15 03:33:09;;;;;;;11.83;6.00;;;7.60;99.90;;;8.09;56.14;102387.38;6153104;22;97101;-58
2023/02/15 03:35:56;;;;;;;13.43;5.00;;;7.60;99.90;;;8.12;57.29;102381.25;6155107;22;97802;-58
2023/02/15 03:38:34;;;;;;;12.40;5.50;;;7.60;99.90;;;8.04;54.27;102392.63;6124654;22;102974;-58
2023/02/15 03:41:09;;;;;;;10.07;5.73;;;7.60;99.90;;;8.07;55.96;102394.38;6126673;22;97174;-58
2023/02/15 03:44:06;;;;;;;12.53;5.90;;;7.50;99.90;;;7.97;54.83;102388.25;6131310;22;98960;-55
2023/02/15 03:46:45;;;;;;;13.67;6.47;;;7.50;99.90;;;7.97;54.88;102387.38;6123812;22;102946;-57
2023/02/15 03:49:45;;;;;;;15.43;5.90;;;7.50;99.90;;;8.00;55.79;102388.25;6125273;22;97437;-57
2023/02/15 03:52:13;;;;;;;12.77;5.57;;;7.50;99.90;;;8.06;56.59;102372.47;6114514;22;97067;-56
2023/02/15 03:54:43;;;;;;;10.53;5.93;;;7.50;99.90;;;8.12;54.73;102386.53;6127739;22;97235;-55
2023/02/15 04:03:15;;;;;;;12.70;5.80;;;7.50;99.90;;;8.05;56.25;102386.50;6129776;22;97147;-58
2023/02/15 04:05:43;;;;;;;14.80;6.10;;;7.50;99.90;;;8.03;55.07;102388.25;6156045;22;96762;-59
2023/02/15 04:08:10;;;;;;;10.03;5.40;;;7.50;99.90;;;8.01;56.94;102389.13;6124135;22;97353;-58
2023/02/15 04:10:51;;;;;;;12.33;5.30;;;7.50;99.90;;;7.96;54.50;102383.00;6129300;22;97097;-56
2023/02/15 04:13:29;;;;;;;14.90;6.43;;;7.40;99.90;;;7.86;54.28;102379.44;6150897;22;96840;-58
2023/02/15 04:16:03;;;;;;;11.47;5.83;;;7.40;99.90;;;7.96;55.06;102385.63;6151487;22;97337;-57
2023/02/15 04:27:00;;;;;;;12.27;5.03;;;7.30;99.90;;;7.86;55.33;102383.81;6127289;22;97105;-57
2023/02/15 04:29:28;;;;;;;9.80;4.93;;;7.30;99.90;;;7.74;55.31;102385.53;6154458;22;97057;-57
2023/02/15 04:31:57;;;;;;;10.83;5.83;;;7.20;99.90;;;7.68;53.67;102380.28;6124191;22;97155;-57
2023/02/15 04:34:23;;;;;;;9.73;5.17;;;7.20;99.90;;;7.74;56.39;102380.28;6156701;22;97273;-58
2023/02/15 04:36:50;;;;;;;9.67;5.70;;;7.30;99.90;;;7.73;56.27;102378.53;6156396;22;97019;-56
2023/02/15 04:39:17;;;;;;;9.67;5.27;;;7.20;99.90;;;7.84;56.76;102380.31;6152433;22;97255;-57
2023/02/15 04:41:44;;;;;;;14.70;6.30;;;7.20;99.90;;;7.80;56.16;102384.66;6129475;22;97171;-58
2023/02/15 04:44:11;;;;;;;10.80;5.57;;;7.20;99.90;;;7.62;53.63;102374.09;6151462;22;97087;-58
2023/02/15 04:46:37;;;;;;;11.07;5.97;;;7.20;99.90;;;7.56;53.95;102368.84;6154754;22;97182;-57
2023/02/15 04:49:03;;;;;;;11.43;5.27;;;7.10;99.90;;;7.43;53.39;102374.03;6126278;22;104342;-55
2023/02/15 04:51:29;;;;;;;14.47;5.47;;;7.00;99.90;;;7.34;54.81;102381.84;6155663;22;96966;-55
2023/02/15 04:53:56;;;;;;;10.83;5.20;;;6.90;99.90;;;7.38;54.75;102381.03;6151277;22;97021;-57
2023/02/15 04:56:22;;;;;;;12.87;5.27;;;6.90;99.90;;;7.52;56.32;102367.91;6154814;22;97900;-57
2023/02/15 04:58:48;;;;;;;16.57;5.87;;;7.00;99.90;;;7.44;54.36;102370.53;6156229;22;107064;-58
2023/02/15 05:01:14;;;;;;;16.33;6.23;;;6.90;99.90;;;7.53;56.59;102359.22;6125791;22;97605;-58
2023/02/15 05:03:40;;;;;;;11.93;5.27;;;7.00;99.90;;;7.67;58.32;102362.75;6155547;22;97209;-57
2023/02/15 05:06:07;;;;;;;12.87;4.60;;;7.00;99.90;;;7.91;59.90;102358.44;6151976;22;96997;-58
2023/02/15 05:08:33;;;;;;;9.80;5.10;;;7.20;99.90;;;7.75;53.61;102366.28;6128689;22;97106;-59
2023/02/15 05:10:59;;;;;;;16.10;5.80;;;7.20;99.90;;;7.66;56.06;102366.22;6152378;22;97095;-58
2023/02/15 05:13:25;;;;;;;14.30;5.33;;;7.10;99.90;;;7.57;53.90;102360.97;6157198;22;97062;-56
2023/02/15 05:15:52;;;;;;;15.37;5.80;;;7.00;99.90;;;7.59;55.99;102363.59;6154656;22;98736;-58
2023/02/15 05:18:20;;;;;;;13.70;5.47;;;7.00;99.90;;;7.52;54.00;102361.78;6150180;22;101451;-58
2023/02/15 05:20:47;;;;;;;12.50;4.93;;;7.00;99.90;;;7.46;54.13;102363.53;6127964;22;97278;-55
2023/02/15 05:23:13;;;;;;;17.67;5.87;;;6.90;99.90;;;7.39;54.56;102364.41;6151156;22;97038;-59
2023/02/15 05:28:27;;;;;;;11.00;5.20;;;6.80;99.90;;;7.39;56.71;102361.78;6129991;22;99714;-58
2023/02/15 05:31:14;;;;;;;12.33;5.70;;;6.80;99.90;;;7.50;55.43;102358.28;6154526;22;96744;-64
2023/02/15 05:33:41;;;;;;;6.50;3.70;;;6.90;99.90;;;7.81;61.33;102354.91;6154053;22;96707;-56
2023/02/15 05:36:07;;;;;;;11.20;6.17;;;7.10;99.90;;;7.92;56.63;102340.03;6153298;22;97495;-58
2023/02/15 05:38:34;;;;;;;11.23;5.27;;;7.30;99.90;;;7.83;54.77;102353.16;6158934;22;97049;-58
2023/02/15 05:41:00;;;;;;;8.43;4.93;;;7.30;99.90;;;7.82;55.79;102351.41;6155598;22;97264;-57
2023/02/15 05:43:26;;;;;;;11.60;5.50;;;7.20;99.90;;;7.83;58.23;102353.16;6132013;22;97012;-59
2023/02/15 05:45:54;;;;;;;16.03;5.97;;;7.20;99.90;;;7.92;55.41;102358.44;6157120;22;104265;-58
2023/02/15 05:48:23;;;;;;;10.03;5.63;;;7.20;99.90;;;7.95;55.61;102341.78;6127185;22;99773;-57
2023/02/15 05:51:08;;;;;;;11.63;5.60;;;7.20;99.90;;;8.09;58.45;102345.31;6158857;22;97122;-55
2023/02/15 05:53:37;;;;;;;11.17;5.43;;;7.30;99.90;;;7.92;54.16;102347.91;6155649;22;97309;-58
2023/02/15 05:56:05;;;;;;;12.23;6.43;;;7.30;99.90;;;7.77;54.32;102353.13;6151415;22;97815;-59
2023/02/15 05:58:36;;;;;;;14.70;6.83;;;7.10;99.90;;;7.64;53.28;102346.09;6158252;22;97115;-58
2023/02/15 06:01:21;;;;;;;13.07;5.67;;;7.10;99.90;;;7.40;53.55;102353.03;6154025;22;97337;-57
2023/02/15 06:03:47;;;;;;;12.20;6.73;;;6.90;99.90;;;7.40;58.07;102357.41;6132742;22;97270;-57
2023/02/15 06:06:13;;;;;;;10.77;5.40;;;6.90;99.90;;;7.35;55.89;102349.47;6154715;22;112491;-56
2023/02/15 06:08:40;;;;;;;11.13;6.03;;;6.90;99.90;;;7.33;54.97;102356.47;6159072;22;96946;-58
2023/02/15 06:11:06;;;;;;;11.30;4.93;;;6.90;99.90;;;7.47;58.72;102343.41;6153465;22;97215;-56
2023/02/15 06:13:33;;;;;;;10.10;4.80;;;7.00;99.90;;;7.78;57.62;102344.38;6158017;22;97006;-57
2023/02/15 06:15:59;;;;;;;10.57;4.53;;;7.20;99.90;;;7.88;57.06;102335.66;6127510;22;97467;-57
2023/02/15 06:18:25;;;;;;;11.27;5.53;;;7.20;99.90;;;7.83;55.61;102333.91;6157003;22;111658;-57
2023/02/15 06:20:51;;;;;;;12.67;5.40;;;7.20;99.90;;;7.72;53.90;102344.38;6158917;22;97571;-58
2023/02/15 06:23:17;;;;;;;8.57;4.33;;;7.20;99.90;;;7.59;53.57;102353.09;6153848;22;96938;-58
2023/02/15 06:25:45;;;;;;;13.20;6.27;;;7.10;99.90;;;7.52;55.70;102360.03;6157427;22;97565;-56
2023/02/15 06:28:11;;;;;;;9.10;4.80;;;7.00;99.90;;;7.43;54.81;102353.03;6126934;22;97060;-55
2023/02/15 06:30:37;;;;;;;11.03;6.00;;;6.90;99.90;;;7.30;53.80;102363.47;6156845;22;97032;-57
2023/02/15 06:33:03;;;;;;;9.53;5.33;;;6.90;99.90;;;7.27;54.61;102360.84;6153381;22;97223;-55
2023/02/15 06:35:28;;;;;;;11.80;5.60;;;6.80;99.90;;;7.29;55.04;102356.47;6158203;22;98415;-56
2023/02/15 06:37:54;;;;;;;10.00;5.07;;;6.80;99.90;;;7.30;56.01;102366.97;6153844;22;97010;-58
2023/02/15 06:40:20;;;;;;;11.13;4.97;;;6.80;99.90;;;7.26;55.36;102369.56;6158143;22;97095;-58
2023/02/15 06:42:46;;;;;;;11.27;5.33;;;6.80;99.90;;;7.31;57.20;102363.47;6157681;22;97518;-55
2023/02/15 06:45:12;;;;;;;10.67;5.17;;;6.80;99.90;;;7.31;59.45;102367.84;6153522;22;98807;-57
2023/02/15 06:47:38;;;;;;;12.00;4.93;;;6.70;99.90;;;7.27;55.74;102374.84;6157826;22;97036;-57
2023/02/15 06:50:06;;;;;;;9.53;4.77;;;6.80;99.90;;;7.32;57.27;102373.09;6152179;22;97171;-57
2023/02/15 06:52:32;;;;;;;13.67;5.63;;;6.80;99.90;;;7.43;56.84;102379.28;6130893;22;97247;-58
2023/02/15 06:54:58;;;;;;;9.47;4.23;;;6.90;99.90;;;7.30;54.06;102381.84;6101650;22;99745;-55
2023/02/15 06:57:23;;;;;;;10.57;5.13;;;6.80;99.90;;;7.31;55.15;102383.59;6154778;22;98813;-58
2023/02/15 06:59:49;;;;;;;9.53;4.97;;;6.80;99.90;;;7.27;54.60;102374.84;6155566;22;97100;-56
2023/02/15 07:02:15;;;;;;;10.57;5.20;;;6.80;99.90;;;7.23;54.89;102375.66;6154609;22;97460;-56
2023/02/15 07:04:41;;;;;;;12.27;5.90;;;6.80;99.90;;;7.29;56.31;102370.47;6128960;22;97295;-58
2023/02/15 07:07:12;;;;;;;6.10;3.50;;;6.80;99.90;;;7.43;61.01;102363.53;6152136;22;110219;-55
2023/02/15 07:09:38;;;;;;;12.53;5.93;;;6.80;99.90;;;7.42;54.59;102368.78;6156216;22;97360;-57
2023/02/15 07:14:49;;;;;;;10.53;5.20;;;6.90;99.90;;;7.76;57.90;102361.88;6133944;22;97918;-58
2023/02/15 07:17:15;;;;;;;12.67;6.07;;;7.10;99.90;;;7.79;58.21;102363.66;6153255;22;96696;-56
2023/02/15 07:19:41;;;;;;;12.00;5.50;;;7.10;99.90;;;7.66;53.69;102373.22;6155047;22;96674;-56
2023/02/15 07:22:07;;;;;;;10.50;5.57;;;7.10;99.90;;;7.71;54.71;102366.25;6152224;22;97083;-58
2023/02/15 07:24:33;;;;;;;9.60;4.37;;;7.10;99.90;;;7.76;55.71;102367.16;6154846;22;122097;-58
2023/02/15 07:26:58;;;;;;;9.67;4.73;;;7.10;99.90;;;7.81;55.32;102357.56;6152481;22;99707;-56
2023/02/15 07:29:24;;;;;;;10.07;4.17;;;7.20;99.90;;;7.87;54.43;102349.66;6156754;22;112815;-57
2023/02/15 07:31:50;;;;;;;11.47;4.27;;;7.30;99.90;;;7.90;53.02;102339.16;6156994;22;97331;-57
2023/02/15 07:34:16;;;;;;;12.00;5.80;;;7.30;99.90;;;7.89;54.30;102337.41;6150371;22;96960;-57
2023/02/15 07:36:44;;;;;;;12.13;5.57;;;7.30;99.90;;;7.97;55.63;102330.44;6150528;22;98109;-58
2023/02/15 07:39:10;;;;;;;9.53;4.27;;;7.30;99.90;;;8.06;57.71;102335.69;6151855;22;97135;-57
2023/02/15 07:41:36;;;;;;;6.53;3.37;;;7.40;99.90;;;8.22;58.90;102325.16;6158099;22;97151;-56
2023/02/15 07:44:02;;;;;;;9.20;4.03;;;7.50;99.90;;;8.36;59.07;102320.81;6146687;22;120052;-58
2023/02/15 07:46:30;;;;;;;10.77;4.50;;;7.70;99.90;;;8.53;55.61;102320.81;6129147;22;99880;-59
2023/02/15 07:48:55;;;;;;;8.07;4.20;;;7.80;99.90;;;8.94;58.30;102312.84;6157128;22;96742;-58
2023/02/15 07:51:21;;;;;;;7.63;4.07;;;8.20;99.90;;;9.00;54.33;102302.31;6150392;22;98120;-58
2023/02/15 07:53:47;;;;;;;7.23;3.93;;;8.40;99.90;;;9.12;52.53;102296.16;6154477;22;97435;-59
2023/02/15 07:56:14;;;;;;;10.30;5.13;;;8.40;99.90;;;9.40;53.84;102302.16;6152761;22;97156;-59
2023/02/15 07:58:52;;;;;;;7.57;4.17;;;8.70;99.90;;;9.53;55.44;102298.56;6130034;22;97305;-59
2023/02/15 08:01:41;;;;;;;4.10;2.27;;;8.70;99.90;;;9.71;56.18;102298.50;6151953;22;96914;-59
2023/02/15 08:04:09;;;;;;;13.33;4.97;;;8.80;99.90;;;9.76;50.40;102288.78;6135218;22;97406;-58
2023/02/15 08:06:36;;;;;;;11.17;4.93;;;9.10;99.90;;;9.86;51.23;102297.53;6156241;22;97150;-59
2023/02/15 08:09:08;;;;;;;8.43;3.97;;;9.10;99.90;;;10.15;53.87;102305.22;6154400;22;96754;-58
2023/02/15 08:11:36;;;;;;;8.60;4.70;;;9.40;99.90;;;10.36;49.09;102299.78;6157419;22;97374;-59
2023/02/15 08:14:14;;;;;;;10.00;5.00;;;9.70;99.90;;;10.23;48.17;102300.78;6152488;22;100567;-59
2023/02/15 08:16:52;;;;;;;3.63;2.47;;;9.60;99.90;;;10.12;52.07;102297.31;6128936;22;97310;-59
2023/02/15 08:19:29;;;;;;;9.97;4.40;;;9.40;99.90;;;10.01;48.27;102300.03;6155757;22;96963;-59
2023/02/15 08:21:57;;;;;;;8.97;3.43;;;9.40;99.90;;;9.81;49.23;102289.63;6131848;22;97239;-59
2023/02/15 08:24:26;;;;;;;11.53;4.53;;;9.20;99.90;;;9.64;52.33;102291.50;6156349;22;100385;-58
2023/02/15 08:26:52;;;;;;;5.97;2.80;;;8.90;99.90;;;9.94;51.74;102294.81;6131322;22;96493;-58
2023/02/15 08:29:25;;;;;;;7.33;3.43;;;9.20;99.90;;;9.94;53.37;102289.53;6155617;22;96538;-59
2023/02/15 08:32:01;;;;;;;2.37;1.30;;;9.30;99.90;;;10.08;54.86;102300.84;6158956;22;97202;-57
2023/02/15 08:34:29;;;;;;;11.17;4.37;;;9.40;99.90;;;10.09;52.74;102294.69;6126656;22;101043;-59
2023/02/15 08:36:56;;;;;;;11.90;4.67;;;9.60;99.90;;;10.05;48.27;102291.22;6143626;22;97362;-58
2023/02/15 08:39:22;;;;;;;7.03;3.80;;;9.60;99.90;;;10.21;53.02;102284.09;6146157;22;96840;-57
2023/02/15 08:41:49;;;;;;;10.43;3.97;;;9.60;99.90;;;10.21;51.46;102289.38;6149374;22;97361;-56
2023/02/15 08:44:18;;;;;;;4.77;2.63;;;9.60;99.90;;;10.10;54.05;102285.91;6143001;22;97343;-58
2023/02/15 08:46:46;;;;;;;6.77;3.37;;;9.50;99.90;;;10.11;51.32;102285.00;6147888;22;97139;-59
2023/02/15 08:49:17;;;;;;;5.67;3.03;;;9.60;99.90;;;10.14;50.86;102283.25;6143153;22;97264;-55
2023/02/15 08:51:43;;;;;;;3.50;1.87;;;9.60;99.90;;;10.39;53.90;102278.66;6148236;22;97267;-58
2023/02/15 08:54:14;;;;;;;7.60;3.23;;;10.00;99.90;;;10.49;50.15;102268.00;6142823;22;96910;-57
2023/02/15 08:56:42;;;;;;;4.57;1.90;;;10.10;99.90;;;10.66;53.42;102271.34;6151125;22;97458;-59
2023/02/15 08:59:20;;;;;;;4.60;2.53;;;10.20;99.90;;;10.70;48.90;102278.34;6144073;22;97029;-58
2023/02/15 09:01:48;;;;;;;4.40;3.03;;;10.40;99.90;;;11.10;51.76;102272.63;6147136;22;97243;-56
2023/02/15 09:04:15;;;;;;;9.77;4.20;;;10.80;99.90;;;10.99;45.49;102271.00;6139212;22;97382;-59
2023/02/15 09:06:43;;;;;;;7.20;4.20;;;10.90;99.90;;;10.78;49.65;102271.22;6141970;22;99988;-58
2023/02/15 09:09:10;;;;;;;1.60;0.90;;;10.50;99.90;;;11.23;51.87;102275.09;6143230;22;96718;-62
2023/02/15 09:11:40;;;;;;;3.20;2.00;;;10.90;99.90;;;11.47;50.50;102273.91;6121132;22;96950;-61
2023/02/15 09:14:15;;;;;;;3.93;2.00;;;11.20;99.90;;;11.54;46.01;102267.63;6142460;22;98040;-63
2023/02/15 09:16:46;;;;;;;8.57;3.63;;;11.40;99.90;;;11.46;48.63;102266.88;6147497;22;97260;-61
2023/02/15 09:19:12;;;;;;;5.77;3.37;;;11.20;99.90;;;11.12;47.96;102270.81;6143274;22;96704;-61
2023/02/15 09:21:38;;;;;;;5.00;2.70;;;10.80;99.90;;;11.44;49.69;102263.38;6147916;22;97678;-57
2023/02/15 09:24:08;;;;;;;3.80;1.73;;;11.10;99.90;;;11.93;50.02;102262.66;6115992;22;97730;-58
2023/02/15 09:26:39;;;;;;;3.13;1.77;;;11.70;99.90;;;11.85;49.65;102260.13;6147242;22;97101;-60
2023/02/15 09:29:05;;;;;;;4.37;2.77;;;11.70;99.90;;;11.70;47.83;102270.03;6142727;22;97236;-57
2023/02/15 09:31:36;;;;;;;9.27;3.47;;;11.50;99.90;;;11.69;47.15;102266.50;6149028;22;96860;-57
2023/02/15 09:34:02;;;;;;;7.30;3.83;;;11.50;99.90;;;11.49;45.63;102276.50;6141652;22;102953;-60
2023/02/15 09:36:35;;;;;;;6.03;3.30;;;11.20;99.90;;;11.28;47.29;102272.38;6147305;22;97932;-56
2023/02/15 09:39:12;;;;;;;5.40;3.30;;;10.90;99.90;;;11.14;45.88;102284.88;6141585;22;96954;-56
2023/02/15 09:42:09;;;;;;;5.23;2.63;;;10.90;99.90;;;11.25;45.68;102283.84;6145806;22;96911;-62
2023/02/15 09:45:27;;;;;;;6.13;1.43;;;10.90;99.90;;;11.59;50.67;102284.31;6140791;22;102876;-54
2023/02/15 09:48:14;;;;;;;5.03;2.20;;;11.20;99.90;;;11.86;49.77;102276.88;6113595;22;103063;-56
2023/02/15 09:50:52;;;;;;;5.90;3.37;;;11.70;99.90;;;11.85;43.97;102278.63;6113435;22;97490;-56
2023/02/15 09:54:02;;;;;;;7.77;3.63;;;11.80;99.90;;;11.58;44.50;102282.56;6140492;22;98638;-60
2023/02/15 09:56:53;;;;;;;5.30;3.20;;;11.40;99.90;;;11.52;45.91;102276.47;6112886;22;102000;-61
2023/02/15 09:59:50;;;;;;;7.50;3.90;;;11.20;99.90;;;11.37;48.23;102280.19;6117137;22;98074;-59
2023/02/15 10:02:41;;;;;;;2.70;1.63;;;11.10;99.90;;;11.54;49.53;102275.53;6143334;22;97330;-61
2023/02/15 10:05:45;;;;;;;6.20;3.13;;;11.20;99.90;;;11.41;45.23;102273.97;6141904;22;97303;-59
2023/02/15 10:08:39;;;;;;;1.73;1.37;;;11.30;99.90;;;11.95;49.86;102274.09;6112113;22;99808;-61
2023/02/15 10:11:41;;;;;;;3.43;1.03;;;11.80;99.90;;;12.36;47.66;102276.06;6136139;22;97478;-60
2023/02/15 10:14:37;;;;;;;5.57;2.43;;;12.30;99.90;;;12.31;48.22;102279.69;6142547;22;96860;-60
2023/02/15 10:17:41;;;;;;;5.77;2.67;;;12.20;99.90;;;12.35;47.74;102273.44;6142268;22;97158;-57
2023/02/15 10:20:59;;;;;;;4.00;2.10;;;12.20;99.90;;;12.44;48.56;102273.25;6039903;22;97653;-58
2023/02/15 10:26:22;;;;;;;5.10;2.90;;;12.40;99.90;;;13.00;47.42;102260.72;6110523;22;97114;-60
2023/02/15 10:28:56;;;;;;;4.47;2.67;;;12.90;99.90;;;13.34;46.21;102250.34;6129457;22;96853;-58
2023/02/15 10:31:42;;;;;;;4.77;2.87;;;13.50;99.90;;;13.25;43.06;102262.00;6075645;22;104378;-58
2023/02/15 10:34:37;;;;;;;5.87;2.77;;;13.30;99.10;;;13.32;41.79;102258.31;6105863;22;99127;-59
2023/02/15 10:37:33;;;;;;;3.47;2.20;;;13.40;99.00;;;13.24;45.83;102259.38;6070613;22;97768;-59
2023/02/15 10:40:26;;;;;;;2.40;1.90;;;13.20;99.90;;;13.63;46.03;102254.97;6071269;22;97501;-59
2023/02/15 10:43:23;;;;;;;3.37;1.40;;;13.70;99.90;;;13.66;45.50;102260.22;6100792;22;96730;-60
2023/02/15 10:46:17;;;;;;;3.50;1.90;;;13.70;99.90;;;13.68;44.72;102261.03;6049476;22;102764;-59
2023/02/15 10:49:11;;;;;;;2.70;2.03;;;13.70;99.30;;;13.83;45.08;102255.38;6094104;22;96894;-60
2023/02/15 10:52:11;;;;;;;4.90;1.53;;;13.80;99.90;;;14.09;44.08;102252.09;6098353;22;96993;-58
2023/02/15 10:55:40;;;;;;;4.47;2.33;;;14.20;99.90;;;14.15;42.88;102251.06;6073003;22;100972;-59
2023/02/15 10:58:43;;;;;;;5.97;2.57;;;14.30;98.40;;;14.19;41.18;102247.44;5975044;23;102944;-60
2023/02/15 11:01:23;;;;;;;6.10;2.80;;;14.30;98.40;;;14.13;44.34;102236.94;6041271;22;97030;-59
2023/02/15 11:04:16;;;;;;;2.73;1.30;;;14.10;99.90;;;14.32;44.12;102243.56;6101186;22;97190;-59
2023/02/15 11:06:58;;;;;;;6.47;3.00;;;14.40;99.90;;;14.25;40.72;102236.66;6097244;22;100882;-60
2023/02/15 11:09:36;;;;;;;7.53;3.50;;;14.40;97.00;;;14.17;41.22;102238.59;6071867;23;99549;-60